sensor_id;sensor_type;location;lat;lon;timestamp;pressure;altitude;pressure_sealevel;temperature;humidity
43217;BME280;60511;42.686;23.300;2022-07-29T00:01:15;94891.84;;;30.30;33.93
43217;BME280;60511;42.686;23.300;2022-07-29T00:03:16;94894.16;;;30.28;34.10
43217;BME280;60511;42.686;23.300;2022-07-29T00:05:16;94901.53;;;30.28;33.99
43217;BME280;60511;42.686;23.300;2022-07-29T00:07:17;94896.06;;;30.28;33.92
43217;BME280;60511;42.686;23.300;2022-07-29T00:09:18;94913.66;;;30.34;33.95
43217;BME280;60511;42.686;23.300;2022-07-29T00:11:18;94905.84;;;30.39;33.75
43217;BME280;60511;42.686;23.300;2022-07-29T00:13:18;94908.56;;;30.36;33.90
43217;BME280;60511;42.686;23.300;2022-07-29T00:15:19;94900.38;;;30.36;33.62
43217;BME280;60511;42.686;23.300;2022-07-29T00:17:19;94910.53;;;30.39;33.52
43217;BME280;60511;42.686;23.300;2022-07-29T00:19:19;94906.22;;;30.38;33.69
43217;BME280;60511;42.686;23.300;2022-07-29T00:21:20;94902.72;;;30.37;33.46
43217;BME280;60511;42.686;23.300;2022-07-29T00:23:20;94899.63;;;30.39;33.55
43217;BME280;60511;42.686;23.300;2022-07-29T00:25:20;94897.28;;;30.37;33.84
43217;BME280;60511;42.686;23.300;2022-07-29T00:27:21;94895.31;;;30.38;33.87
43217;BME280;60511;42.686;23.300;2022-07-29T00:29:21;94893.00;;;30.36;33.93
43217;BME280;60511;42.686;23.300;2022-07-29T00:31:23;94901.56;;;30.38;33.59
43217;BME280;60511;42.686;23.300;2022-07-29T00:33:23;94902.72;;;30.37;33.95
43217;BME280;60511;42.686;23.300;2022-07-29T00:35:24;94906.66;;;30.36;33.90
43217;BME280;60511;42.686;23.300;2022-07-29T00:37:43;94901.56;;;30.35;33.63
43217;BME280;60511;42.686;23.300;2022-07-29T00:39:43;94898.03;;;30.38;33.49
43217;BME280;60511;42.686;23.300;2022-07-29T00:41:44;94898.47;;;30.36;33.56
43217;BME280;60511;42.686;23.300;2022-07-29T00:43:44;94904.31;;;30.35;33.94
43217;BME280;60511;42.686;23.300;2022-07-29T00:45:44;94906.66;;;30.36;33.51
43217;BME280;60511;42.686;23.300;2022-07-29T00:47:45;94910.16;;;30.40;33.71
43217;BME280;60511;42.686;23.300;2022-07-29T00:49:45;94912.88;;;30.40;33.52
43217;BME280;60511;42.686;23.300;2022-07-29T00:51:45;94921.84;;;30.37;33.68
43217;BME280;60511;42.686;23.300;2022-07-29T00:53:46;94917.16;;;30.38;33.45
43217;BME280;60511;42.686;23.300;2022-07-29T00:55:50;94920.69;;;30.35;33.71
43217;BME280;60511;42.686;23.300;2022-07-29T00:57:51;94910.16;;;30.37;33.56
43217;BME280;60511;42.686;23.300;2022-07-29T00:59:52;94905.84;;;30.39;33.92
43217;BME280;60511;42.686;23.300;2022-07-29T01:01:53;94909.38;;;30.36;33.52
43217;BME280;60511;42.686;23.300;2022-07-29T01:03:53;94905.84;;;30.36;33.97
43217;BME280;60511;42.686;23.300;2022-07-29T01:05:54;94908.19;;;30.34;33.71
43217;BME280;60511;42.686;23.300;2022-07-29T01:07:54;94905.47;;;30.34;33.64
43217;BME280;60511;42.686;23.300;2022-07-29T01:09:57;94900.00;;;30.34;33.86
43217;BME280;60511;42.686;23.300;2022-07-29T01:11:59;94895.34;;;30.31;33.58
43217;BME280;60511;42.686;23.300;2022-07-29T01:14:00;94892.19;;;30.36;34.04
43217;BME280;60511;42.686;23.300;2022-07-29T01:16:03;94891.03;;;30.33;34.05
43217;BME280;60511;42.686;23.300;2022-07-29T01:18:10;94893.38;;;30.31;33.65
43217;BME280;60511;42.686;23.300;2022-07-29T01:20:20;94893.75;;;30.33;34.03
43217;BME280;60511;42.686;23.300;2022-07-29T01:28:49;94881.31;;;30.32;33.88
43217;BME280;60511;42.686;23.300;2022-07-29T01:30:51;94875.03;;;30.32;33.93
43217;BME280;60511;42.686;23.300;2022-07-29T01:33:11;94872.31;;;30.35;33.78
43217;BME280;60511;42.686;23.300;2022-07-29T01:35:36;94876.59;;;30.33;33.66
43217;BME280;60511;42.686;23.300;2022-07-29T01:39:57;94879.34;;;30.33;33.57
43217;BME280;60511;42.686;23.300;2022-07-29T01:44:40;94872.31;;;30.32;33.58
43217;BME280;60511;42.686;23.300;2022-07-29T01:46:45;94875.44;;;30.30;34.09
43217;BME280;60511;42.686;23.300;2022-07-29T01:48:48;94883.22;;;30.32;34.03
43217;BME280;60511;42.686;23.300;2022-07-29T01:50:53;94879.72;;;30.31;33.65
43217;BME280;60511;42.686;23.300;2022-07-29T01:52:56;94875.41;;;30.23;33.99
43217;BME280;60511;42.686;23.300;2022-07-29T01:54:58;94868.78;;;30.28;33.80
43217;BME280;60511;42.686;23.300;2022-07-29T01:57:03;94862.56;;;30.31;34.08
43217;BME280;60511;42.686;23.300;2022-07-29T01:59:04;94873.50;;;30.34;33.84
43217;BME280;60511;42.686;23.300;2022-07-29T02:01:06;94867.25;;;30.30;33.60
43217;BME280;60511;42.686;23.300;2022-07-29T02:03:09;94864.91;;;30.32;33.66
43217;BME280;60511;42.686;23.300;2022-07-29T02:05:12;94866.47;;;30.33;33.90
43217;BME280;60511;42.686;23.300;2022-07-29T02:07:15;94860.22;;;30.33;33.93
43217;BME280;60511;42.686;23.300;2022-07-29T02:09:17;94864.13;;;30.32;33.89
43217;BME280;60511;42.686;23.300;2022-07-29T02:11:19;94861.00;;;30.30;33.67
43217;BME280;60511;42.686;23.300;2022-07-29T02:13:19;94864.88;;;30.29;33.62
43217;BME280;60511;42.686;23.300;2022-07-29T02:15:22;94864.91;;;30.32;33.72
43217;BME280;60511;42.686;23.300;2022-07-29T02:17:27;94860.19;;;30.29;33.63
43217;BME280;60511;42.686;23.300;2022-07-29T02:19:29;94859.84;;;30.31;33.79
43217;BME280;60511;42.686;23.300;2022-07-29T02:21:31;94856.69;;;30.29;33.82
43217;BME280;60511;42.686;23.300;2022-07-29T02:23:33;94855.16;;;30.31;33.87
43217;BME280;60511;42.686;23.300;2022-07-29T02:25:34;94854.75;;;30.33;33.57
43217;BME280;60511;42.686;23.300;2022-07-29T02:27:35;94853.97;;;30.29;33.59
43217;BME280;60511;42.686;23.300;2022-07-29T02:29:37;94849.69;;;30.31;33.66
43217;BME280;60511;42.686;23.300;2022-07-29T02:31:39;94845.41;;;30.30;33.67
43217;BME280;60511;42.686;23.300;2022-07-29T02:33:43;94850.84;;;30.27;33.91
43217;BME280;60511;42.686;23.300;2022-07-29T02:35:44;94839.91;;;30.27;33.98
43217;BME280;60511;42.686;23.300;2022-07-29T02:37:45;94840.31;;;30.29;33.60
43217;BME280;60511;42.686;23.300;2022-07-29T02:40:08;94836.00;;;30.28;33.57
43217;BME280;60511;42.686;23.300;2022-07-29T02:42:10;94834.50;;;30.30;33.80
43217;BME280;60511;42.686;23.300;2022-07-29T02:44:15;94834.84;;;30.29;34.11
43217;BME280;60511;42.686;23.300;2022-07-29T02:46:18;94832.50;;;30.27;34.05
43217;BME280;60511;42.686;23.300;2022-07-29T02:48:20;94826.66;;;30.25;34.14
43217;BME280;60511;42.686;23.300;2022-07-29T02:50:30;94829.03;;;30.30;33.59
43217;BME280;60511;42.686;23.300;2022-07-29T02:54:39;94826.66;;;30.25;34.02
43217;BME280;60511;42.686;23.300;2022-07-29T02:56:41;94834.84;;;30.29;33.65
43217;BME280;60511;42.686;23.300;2022-07-29T02:58:49;94835.22;;;30.27;34.22
43217;BME280;60511;42.686;23.300;2022-07-29T03:00:53;94834.06;;;30.28;34.05
43217;BME280;60511;42.686;23.300;2022-07-29T03:02:58;94830.16;;;30.29;34.03
43217;BME280;60511;42.686;23.300;2022-07-29T03:04:59;94830.97;;;30.26;34.26
43217;BME280;60511;42.686;23.300;2022-07-29T03:07:01;94833.28;;;30.28;34.11
43217;BME280;60511;42.686;23.300;2022-07-29T03:09:02;94827.84;;;30.24;33.75
43217;BME280;60511;42.686;23.300;2022-07-29T03:11:02;94830.16;;;30.25;34.12
43217;BME280;60511;42.686;23.300;2022-07-29T03:13:04;94832.88;;;30.25;33.74
43217;BME280;60511;42.686;23.300;2022-07-29T03:15:05;94828.63;;;30.24;33.74
43217;BME280;60511;42.686;23.300;2022-07-29T03:17:06;94831.34;;;30.32;33.95
43217;BME280;60511;42.686;23.300;2022-07-29T03:19:07;94829.81;;;30.31;33.72
43217;BME280;60511;42.686;23.300;2022-07-29T03:21:08;94833.28;;;30.28;34.00
43217;BME280;60511;42.686;23.300;2022-07-29T03:23:08;94838.34;;;30.29;33.98
43217;BME280;60511;42.686;23.300;2022-07-29T03:25:09;94846.16;;;30.27;34.18
43217;BME280;60511;42.686;23.300;2022-07-29T03:27:09;94845.41;;;30.30;33.93
43217;BME280;60511;42.686;23.300;2022-07-29T03:29:10;94842.69;;;30.30;33.81
43217;BME280;60511;42.686;23.300;2022-07-29T03:31:10;94845.75;;;30.25;34.14
43217;BME280;60511;42.686;23.300;2022-07-29T03:33:10;94841.09;;;30.22;34.07
43217;BME280;60511;42.686;23.300;2022-07-29T03:35:10;94850.47;;;30.24;33.81
43217;BME280;60511;42.686;23.300;2022-07-29T03:37:11;94851.63;;;30.27;33.82
43217;BME280;60511;42.686;23.300;2022-07-29T03:39:11;94846.16;;;30.27;34.13
43217;BME280;60511;42.686;23.300;2022-07-29T03:41:13;94852.81;;;30.26;34.07
43217;BME280;60511;42.686;23.300;2022-07-29T03:43:14;94853.19;;;30.24;34.01
43217;BME280;60511;42.686;23.300;2022-07-29T03:45:17;94853.19;;;30.24;34.34
43217;BME280;60511;42.686;23.300;2022-07-29T03:47:20;94849.28;;;30.25;33.95
43217;BME280;60511;42.686;23.300;2022-07-29T03:49:22;94845.75;;;30.21;33.95
43217;BME280;60511;42.686;23.300;2022-07-29T03:51:23;94858.66;;;30.24;33.94
43217;BME280;60511;42.686;23.300;2022-07-29T03:53:25;94854.72;;;30.29;34.11
43217;BME280;60511;42.686;23.300;2022-07-29T03:55:25;94858.66;;;30.28;33.94
43217;BME280;60511;42.686;23.300;2022-07-29T03:57:28;94856.31;;;30.27;33.86
43217;BME280;60511;42.686;23.300;2022-07-29T03:59:32;94861.00;;;30.30;33.71
43217;BME280;60511;42.686;23.300;2022-07-29T04:01:33;94867.59;;;30.29;34.01
43217;BME280;60511;42.686;23.300;2022-07-29T04:03:34;94867.22;;;30.27;33.92
43217;BME280;60511;42.686;23.300;2022-07-29T04:05:34;94865.66;;;30.25;34.12
43217;BME280;60511;42.686;23.300;2022-07-29T04:07:36;94860.56;;;30.28;33.72
43217;BME280;60511;42.686;23.300;2022-07-29T04:09:37;94861.38;;;30.28;33.84
43217;BME280;60511;42.686;23.300;2022-07-29T04:11:38;94868.00;;;30.23;34.09
43217;BME280;60511;42.686;23.300;2022-07-29T04:13:38;94859.81;;;30.27;34.16
43217;BME280;60511;42.686;23.300;2022-07-29T04:15:39;94856.69;;;30.25;33.92
43217;BME280;60511;42.686;23.300;2022-07-29T04:17:39;94854.34;;;30.23;34.23
43217;BME280;60511;42.686;23.300;2022-07-29T04:19:39;94850.47;;;30.24;33.82
43217;BME280;60511;42.686;23.300;2022-07-29T04:21:40;94861.00;;;30.26;33.86
43217;BME280;60511;42.686;23.300;2022-07-29T04:23:40;94856.69;;;30.29;34.06
43217;BME280;60511;42.686;23.300;2022-07-29T04:25:41;94860.19;;;30.29;34.11
43217;BME280;60511;42.686;23.300;2022-07-29T04:27:41;94854.38;;;30.31;33.81
43217;BME280;60511;42.686;23.300;2022-07-29T04:29:59;94853.59;;;30.30;34.27
43217;BME280;60511;42.686;23.300;2022-07-29T04:32:00;94861.78;;;30.30;33.84
43217;BME280;60511;42.686;23.300;2022-07-29T04:34:00;94861.00;;;30.30;34.03
43217;BME280;60511;42.686;23.300;2022-07-29T04:36:00;94867.22;;;30.34;34.04
43217;BME280;60511;42.686;23.300;2022-07-29T04:38:00;94870.75;;;30.31;34.12
43217;BME280;60511;42.686;23.300;2022-07-29T04:40:02;94876.19;;;30.27;34.03
43217;BME280;60511;42.686;23.300;2022-07-29T04:42:02;94877.38;;;30.33;34.08
43217;BME280;60511;42.686;23.300;2022-07-29T04:44:02;94870.75;;;30.34;34.03
43217;BME280;60511;42.686;23.300;2022-07-29T04:46:05;94875.81;;;30.36;33.84
43217;BME280;60511;42.686;23.300;2022-07-29T04:48:06;94873.88;;;30.33;34.03
43217;BME280;60511;42.686;23.300;2022-07-29T04:50:07;94871.91;;;30.33;33.67
43217;BME280;60511;42.686;23.300;2022-07-29T04:52:08;94873.88;;;30.33;33.83
43217;BME280;60511;42.686;23.300;2022-07-29T04:54:08;94883.63;;;30.30;33.85
43217;BME280;60511;42.686;23.300;2022-07-29T04:56:08;94884.00;;;30.29;33.85
43217;BME280;60511;42.686;23.300;2022-07-29T04:58:09;94885.97;;;30.32;33.86
43217;BME280;60511;42.686;23.300;2022-07-29T05:00:09;94881.69;;;30.34;33.76
43217;BME280;60511;42.686;23.300;2022-07-29T05:02:09;94882.06;;;30.36;34.18
43217;BME280;60511;42.686;23.300;2022-07-29T05:04:10;94883.22;;;30.35;33.96
43217;BME280;60511;42.686;23.300;2022-07-29T05:06:10;94878.97;;;30.34;33.83
43217;BME280;60511;42.686;23.300;2022-07-29T05:08:10;94874.25;;;30.31;33.96
43217;BME280;60511;42.686;23.300;2022-07-29T05:10:11;94880.91;;;30.30;33.91
43217;BME280;60511;42.686;23.300;2022-07-29T05:12:11;94882.47;;;30.31;34.03
43217;BME280;60511;42.686;23.300;2022-07-29T05:14:12;94876.59;;;30.33;34.08
43217;BME280;60511;42.686;23.300;2022-07-29T05:16:12;94889.50;;;30.32;34.02
43217;BME280;60511;42.686;23.300;2022-07-29T05:18:12;94882.84;;;30.30;33.92
43217;BME280;60511;42.686;23.300;2022-07-29T05:20:14;94886.34;;;30.37;34.16
43217;BME280;60511;42.686;23.300;2022-07-29T05:22:14;94884.81;;;30.36;33.76
43217;BME280;60511;42.686;23.300;2022-07-29T05:24:14;94889.09;;;30.37;34.09
43217;BME280;60511;42.686;23.300;2022-07-29T05:26:14;94892.19;;;30.39;33.66
43217;BME280;60511;42.686;23.300;2022-07-29T05:28:15;94893.00;;;30.36;34.15
43217;BME280;60511;42.686;23.300;2022-07-29T05:30:16;94885.56;;;30.37;33.59
43217;BME280;60511;42.686;23.300;2022-07-29T05:32:17;94875.44;;;30.37;33.84
43217;BME280;60511;42.686;23.300;2022-07-29T05:34:17;94885.19;;;30.38;33.72
43217;BME280;60511;42.686;23.300;2022-07-29T05:36:18;94882.47;;;30.38;33.59
43217;BME280;60511;42.686;23.300;2022-07-29T05:38:19;94885.56;;;30.37;33.95
43217;BME280;60511;42.686;23.300;2022-07-29T05:40:19;94882.84;;;30.37;33.69
43217;BME280;60511;42.686;23.300;2022-07-29T05:42:20;94881.69;;;30.34;33.70
43217;BME280;60511;42.686;23.300;2022-07-29T05:44:20;94885.97;;;30.35;33.59
43217;BME280;60511;42.686;23.300;2022-07-29T05:46:20;94883.22;;;30.39;33.67
43217;BME280;60511;42.686;23.300;2022-07-29T05:48:20;94888.31;;;30.37;33.67
43217;BME280;60511;42.686;23.300;2022-07-29T05:50:21;94893.78;;;30.40;33.63
43217;BME280;60511;42.686;23.300;2022-07-29T05:52:21;94889.84;;;30.41;33.64
43217;BME280;60511;42.686;23.300;2022-07-29T05:54:21;94900.00;;;30.41;33.42
43217;BME280;60511;42.686;23.300;2022-07-29T05:56:23;94894.94;;;30.39;33.88
43217;BME280;60511;42.686;23.300;2022-07-29T05:58:23;94900.38;;;30.39;33.37
43217;BME280;60511;42.686;23.300;2022-07-29T06:00:23;94898.44;;;30.40;33.45
43217;BME280;60511;42.686;23.300;2022-07-29T06:02:23;94895.31;;;30.38;33.86
43217;BME280;60511;42.686;23.300;2022-07-29T06:04:24;94890.66;;;30.38;33.50
43217;BME280;60511;42.686;23.300;2022-07-29T06:06:24;94896.13;;;30.38;33.78
43217;BME280;60511;42.686;23.300;2022-07-29T06:08:24;94900.38;;;30.39;33.58
43217;BME280;60511;42.686;23.300;2022-07-29T06:10:24;94894.94;;;30.39;33.41
43217;BME280;60511;42.686;23.300;2022-07-29T06:12:25;94898.06;;;30.34;33.59
43217;BME280;60511;42.686;23.300;2022-07-29T06:14:26;94894.94;;;30.39;33.68
43217;BME280;60511;42.686;23.300;2022-07-29T06:16:26;94902.34;;;30.35;33.50
43217;BME280;60511;42.686;23.300;2022-07-29T06:18:26;94903.91;;;30.40;33.36
43217;BME280;60511;42.686;23.300;2022-07-29T06:20:30;94895.69;;;30.40;33.26
43217;BME280;60511;42.686;23.300;2022-07-29T06:22:32;94896.13;;;30.38;33.29
43217;BME280;60511;42.686;23.300;2022-07-29T06:24:33;94902.72;;;30.41;33.32
43217;BME280;60511;42.686;23.300;2022-07-29T06:26:33;94899.22;;;30.40;33.24
43217;BME280;60511;42.686;23.300;2022-07-29T06:28:34;94898.44;;;30.40;33.55
43217;BME280;60511;42.686;23.300;2022-07-29T06:30:34;94898.47;;;30.36;33.36
43217;BME280;60511;42.686;23.300;2022-07-29T06:32:35;94895.31;;;30.38;33.49
43217;BME280;60511;42.686;23.300;2022-07-29T06:34:35;94896.13;;;30.38;33.33
43217;BME280;60511;42.686;23.300;2022-07-29T06:36:36;94894.16;;;30.39;33.20
43217;BME280;60511;42.686;23.300;2022-07-29T06:38:36;94899.22;;;30.33;33.50
43217;BME280;60511;42.686;23.300;2022-07-29T06:40:40;94890.25;;;30.36;33.66
43217;BME280;60511;42.686;23.300;2022-07-29T06:43:00;94891.44;;;30.39;33.19
43217;BME280;60511;42.686;23.300;2022-07-29T06:45:00;94893.78;;;30.37;33.69
43217;BME280;60511;42.686;23.300;2022-07-29T06:47:01;94885.19;;;30.35;33.39
43217;BME280;60511;42.686;23.300;2022-07-29T06:49:02;94885.59;;;30.40;33.50
43217;BME280;60511;42.686;23.300;2022-07-29T06:51:03;94890.25;;;30.43;33.08
43217;BME280;60511;42.686;23.300;2022-07-29T06:53:04;94895.72;;;30.47;33.42
43217;BME280;60511;42.686;23.300;2022-07-29T06:55:05;94890.63;;;30.42;33.48
43217;BME280;60511;42.686;23.300;2022-07-29T06:57:05;94885.59;;;30.40;33.48
43217;BME280;60511;42.686;23.300;2022-07-29T06:59:07;94893.75;;;30.44;33.06
43217;BME280;60511;42.686;23.300;2022-07-29T07:01:07;94891.44;;;30.42;33.37
43217;BME280;60511;42.686;23.300;2022-07-29T07:03:08;94890.63;;;30.46;33.22
43217;BME280;60511;42.686;23.300;2022-07-29T07:05:08;94889.47;;;30.43;33.06
43217;BME280;60511;42.686;23.300;2022-07-29T07:07:08;94889.09;;;30.41;33.45
43217;BME280;60511;42.686;23.300;2022-07-29T07:09:09;94880.88;;;30.44;33.09
43217;BME280;60511;42.686;23.300;2022-07-29T07:11:09;94873.84;;;30.43;33.22
43217;BME280;60511;42.686;23.300;2022-07-29T07:13:09;94883.22;;;30.46;32.90
43217;BME280;60511;42.686;23.300;2022-07-29T07:15:09;94889.84;;;30.41;33.03
43217;BME280;60511;42.686;23.300;2022-07-29T07:17:10;94888.66;;;30.46;33.08
43217;BME280;60511;42.686;23.300;2022-07-29T07:19:10;94884.00;;;30.47;33.29
43217;BME280;60511;42.686;23.300;2022-07-29T07:21:10;94877.34;;;30.48;33.16
43217;BME280;60511;42.686;23.300;2022-07-29T07:23:11;94882.81;;;30.44;33.05
43217;BME280;60511;42.686;23.300;2022-07-29T07:25:11;94884.00;;;30.43;33.19
43217;BME280;60511;42.686;23.300;2022-07-29T07:27:12;94877.34;;;30.48;33.36
43217;BME280;60511;42.686;23.300;2022-07-29T07:29:12;94884.41;;;30.49;33.00
43217;BME280;60511;42.686;23.300;2022-07-29T07:31:13;94875.44;;;30.44;33.36
43217;BME280;60511;42.686;23.300;2022-07-29T07:33:14;94883.22;;;30.50;33.04
43217;BME280;60511;42.686;23.300;2022-07-29T07:35:15;94882.81;;;30.51;33.10
43217;BME280;60511;42.686;23.300;2022-07-29T07:37:16;94874.25;;;30.49;33.32
43217;BME280;60511;42.686;23.300;2022-07-29T07:39:18;94875.41;;;30.52;32.96
43217;BME280;60511;42.686;23.300;2022-07-29T07:41:18;94872.28;;;30.50;32.91
43217;BME280;60511;42.686;23.300;2022-07-29T07:43:18;94881.66;;;30.49;32.96
43217;BME280;60511;42.686;23.300;2022-07-29T07:45:18;94882.44;;;30.49;32.87
43217;BME280;60511;42.686;23.300;2022-07-29T07:47:19;94883.22;;;30.50;32.87
43217;BME280;60511;42.686;23.300;2022-07-29T07:49:25;94878.53;;;30.54;33.08
43217;BME280;60511;42.686;23.300;2022-07-29T07:51:25;94870.72;;;30.56;33.10
43217;BME280;60511;42.686;23.300;2022-07-29T07:53:26;94882.78;;;30.58;33.12
43217;BME280;60511;42.686;23.300;2022-07-29T07:55:28;94876.59;;;30.51;32.87
43217;BME280;60511;42.686;23.300;2022-07-29T07:57:28;94874.25;;;30.53;32.89
43217;BME280;60511;42.686;23.300;2022-07-29T07:59:29;94875.41;;;30.52;32.72
43217;BME280;60511;42.686;23.300;2022-07-29T08:01:29;94877.75;;;30.53;32.73
43217;BME280;60511;42.686;23.300;2022-07-29T08:03:29;94872.28;;;30.53;33.02
43217;BME280;60511;42.686;23.300;2022-07-29T08:05:29;94869.16;;;30.55;33.01
43217;BME280;60511;42.686;23.300;2022-07-29T08:07:30;94878.91;;;30.56;33.05
43217;BME280;60511;42.686;23.300;2022-07-29T08:09:30;94871.88;;;30.58;32.85
43217;BME280;60511;42.686;23.300;2022-07-29T08:11:31;94880.09;;;30.55;33.10
43217;BME280;60511;42.686;23.300;2022-07-29T08:13:31;94874.63;;;30.55;32.93
43217;BME280;60511;42.686;23.300;2022-07-29T08:15:33;94872.28;;;30.50;32.84
43217;BME280;60511;42.686;23.300;2022-07-29T08:17:33;94873.44;;;30.56;32.99
43217;BME280;60511;42.686;23.300;2022-07-29T08:19:33;94873.81;;;30.54;32.69
43217;BME280;60511;42.686;23.300;2022-07-29T08:21:37;94873.81;;;30.58;33.06
43217;BME280;60511;42.686;23.300;2022-07-29T08:23:38;94870.72;;;30.56;33.06
43217;BME280;60511;42.686;23.300;2022-07-29T08:25:38;94881.63;;;30.56;32.94
43217;BME280;60511;42.686;23.300;2022-07-29T08:27:39;94882.03;;;30.54;32.79
43217;BME280;60511;42.686;23.300;2022-07-29T08:29:40;94867.59;;;30.54;32.81
43217;BME280;60511;42.686;23.300;2022-07-29T08:31:41;94872.66;;;30.55;32.75
43217;BME280;60511;42.686;23.300;2022-07-29T08:33:41;94866.81;;;30.57;32.30
43217;BME280;60511;42.686;23.300;2022-07-29T08:35:41;94869.56;;;30.53;32.39
43217;BME280;60511;42.686;23.300;2022-07-29T08:37:42;94876.56;;;30.54;32.44
43217;BME280;60511;42.686;23.300;2022-07-29T08:39:43;94878.91;;;30.56;32.48
43217;BME280;60511;42.686;23.300;2022-07-29T08:41:43;94874.25;;;30.53;32.51
43217;BME280;60511;42.686;23.300;2022-07-29T08:43:44;94864.09;;;30.57;32.24
43217;BME280;60511;42.686;23.300;2022-07-29T08:45:45;94865.25;;;30.56;32.32
43217;BME280;60511;42.686;23.300;2022-07-29T08:47:45;94861.75;;;30.59;32.56
43217;BME280;60511;42.686;23.300;2022-07-29T08:49:46;94866.03;;;30.56;32.50
43217;BME280;60511;42.686;23.300;2022-07-29T08:51:48;94873.44;;;30.56;32.54
43217;BME280;60511;42.686;23.300;2022-07-29T08:53:50;94866.41;;;30.58;32.44
43217;BME280;60511;42.686;23.300;2022-07-29T08:55:51;94867.19;;;30.62;32.15
43217;BME280;60511;42.686;23.300;2022-07-29T08:57:51;94859.41;;;30.61;32.56
43217;BME280;60511;42.686;23.300;2022-07-29T08:59:52;94852.75;;;30.62;32.33
43217;BME280;60511;42.686;23.300;2022-07-29T09:01:54;94855.88;;;30.60;32.73
43217;BME280;60511;42.686;23.300;2022-07-29T09:03:55;94855.09;;;30.63;32.27
43217;BME280;60511;42.686;23.300;2022-07-29T09:05:57;94853.13;;;30.60;32.47
43217;BME280;60511;42.686;23.300;2022-07-29T09:07:58;94852.34;;;30.63;32.33
43217;BME280;60511;42.686;23.300;2022-07-29T09:09:59;94843.78;;;30.65;32.57
43217;BME280;60511;42.686;23.300;2022-07-29T09:11:59;94846.88;;;30.67;32.45
43217;BME280;60511;42.686;23.300;2022-07-29T09:14:00;94848.81;;;30.67;32.02
43217;BME280;60511;42.686;23.300;2022-07-29T09:16:00;94848.44;;;30.64;32.21
43217;BME280;60511;42.686;23.300;2022-07-29T09:18:02;94842.19;;;30.71;32.35
43217;BME280;60511;42.686;23.300;2022-07-29T09:20:09;94844.13;;;30.71;32.57
43217;BME280;60511;42.686;23.300;2022-07-29T09:22:10;94844.13;;;30.71;32.29
43217;BME280;60511;42.686;23.300;2022-07-29T09:24:12;94848.06;;;30.70;32.25
43217;BME280;60511;42.686;23.300;2022-07-29T09:26:13;94846.09;;;30.67;31.98
43217;BME280;60511;42.686;23.300;2022-07-29T09:28:15;94847.28;;;30.69;32.26
43217;BME280;60511;42.686;23.300;2022-07-29T09:30:18;94843.34;;;30.70;32.34
43217;BME280;60511;42.686;23.300;2022-07-29T09:32:19;94840.63;;;30.70;31.84
43217;BME280;60511;42.686;23.300;2022-07-29T09:34:23;94847.25;;;30.73;31.86
43217;BME280;60511;42.686;23.300;2022-07-29T09:36:23;94855.47;;;30.69;31.38
43217;BME280;60511;42.686;23.300;2022-07-29T09:38:23;94851.16;;;30.72;31.91
43217;BME280;60511;42.686;23.300;2022-07-29T09:40:25;94838.28;;;30.69;31.53
43217;BME280;60511;42.686;23.300;2022-07-29T09:42:29;94839.47;;;30.71;31.73
43217;BME280;60511;42.686;23.300;2022-07-29T09:44:45;94839.03;;;30.73;31.20
43217;BME280;60511;42.686;23.300;2022-07-29T09:47:20;94848.03;;;30.73;31.98
43217;BME280;60511;42.686;23.300;2022-07-29T09:49:12;94833.19;;;30.71;31.80
43217;BME280;60511;42.686;23.300;2022-07-29T09:51:17;94837.13;;;30.73;31.91
43217;BME280;60511;42.686;23.300;2022-07-29T09:53:34;94836.31;;;30.73;31.99
43217;BME280;60511;42.686;23.300;2022-07-29T09:55:45;94842.97;;;30.75;31.87
43217;BME280;60511;42.686;23.300;2022-07-29T09:57:46;94836.31;;;30.76;31.97
43217;BME280;60511;42.686;23.300;2022-07-29T09:59:57;94824.59;;;30.76;31.88
43217;BME280;60511;42.686;23.300;2022-07-29T10:01:58;94829.69;;;30.77;31.71
43217;BME280;60511;42.686;23.300;2022-07-29T10:03:58;94816.03;;;30.77;31.69
43217;BME280;60511;42.686;23.300;2022-07-29T10:06:05;94811.34;;;30.78;31.50
43217;BME280;60511;42.686;23.300;2022-07-29T10:08:06;94806.25;;;30.80;31.77
43217;BME280;60511;42.686;23.300;2022-07-29T10:10:07;94813.25;;;30.81;31.78
43217;BME280;60511;42.686;23.300;2022-07-29T10:12:12;94807.78;;;30.81;31.38
43217;BME280;60511;42.686;23.300;2022-07-29T10:14:14;94810.13;;;30.79;31.79
43217;BME280;60511;42.686;23.300;2022-07-29T10:16:15;94800.41;;;30.81;31.77
43217;BME280;60511;42.686;23.300;2022-07-29T10:18:15;94806.25;;;30.80;31.41
43217;BME280;60511;42.686;23.300;2022-07-29T10:20:20;94801.16;;;30.82;31.71
43217;BME280;60511;42.686;23.300;2022-07-29T10:22:21;94794.94;;;30.81;31.29
43217;BME280;60511;42.686;23.300;2022-07-29T10:24:21;94789.03;;;30.83;31.63
43217;BME280;60511;42.686;23.300;2022-07-29T10:26:22;94786.31;;;30.83;31.51
43217;BME280;60511;42.686;23.300;2022-07-29T10:28:22;94789.44;;;30.85;31.51
43217;BME280;60511;42.686;23.300;2022-07-29T10:30:24;94789.84;;;30.83;31.47
43217;BME280;60511;42.686;23.300;2022-07-29T10:32:31;94778.50;;;30.85;31.45
43217;BME280;60511;42.686;23.300;2022-07-29T10:34:44;94783.97;;;30.85;31.25
43217;BME280;60511;42.686;23.300;2022-07-29T10:43:36;94775.38;;;30.87;31.73
43217;BME280;60511;42.686;23.300;2022-07-29T10:45:38;94779.72;;;30.88;31.61
43217;BME280;60511;42.686;23.300;2022-07-29T10:47:39;94769.13;;;30.86;31.28
43217;BME280;60511;42.686;23.300;2022-07-29T10:49:39;94769.13;;;30.86;31.64
43217;BME280;60511;42.686;23.300;2022-07-29T10:53:56;94766.41;;;30.90;31.41
43217;BME280;60511;42.686;23.300;2022-07-29T10:55:59;94759.75;;;30.91;31.32
43217;BME280;60511;42.686;23.300;2022-07-29T11:09:16;94744.94;;;30.92;31.25
43217;BME280;60511;42.686;23.300;2022-07-29T11:15:57;94742.59;;;30.94;31.44